Time;durP1;ratioP1;P1;durP2;ratioP2;P2;SDS_P1;SDS_P2;PMS_P1;PMS_P2;Temp;Humidity;BMP_temperature;BMP_pressure;BME280_temperature;BME280_humidity;BME280_pressure;Samples;Min_cycle;Max_cycle;Signal;HPM_P1;HPM_P2
2024/01/28 00:01:15;;;;;;;;;;;;;;;;;;4956011;28;20400;-65
2024/01/28 00:03:43;;;;;;;;;;;;;;;;;;4968692;28;20857;-65
2024/01/28 00:06:11;;;;;;;;;;;;;;;;;;4966847;28;19921;-65
2024/01/28 00:08:36;;;;;;;;;;;;;;;;;;4955265;28;20385;-66
2024/01/28 00:11:01;;;;;;;;;;;;;;;;;;4971123;28;19929;-67
2024/01/28 00:13:28;;;;;;;;;;;;;;;;;;4988136;28;20342;-66
2024/01/28 00:15:53;;;;;;;;;;;;;;;;;;4988674;28;19917;-67
2024/01/28 00:18:19;;;;;;;;;;;;;;;;;;4984204;28;20722;-66
2024/01/28 00:20:49;;;;;;;;;;;;;;;;;;4967817;28;19917;-67
2024/01/28 00:23:17;;;;;;;;;;;;;;;;;;4989518;28;20399;-67
2024/01/28 00:25:47;;;;;;;;;;;;;;;;;;4996343;28;20323;-67
2024/01/28 00:28:13;;;;;;;;;;;;;;;;;;5000030;28;19960;-66
2024/01/28 00:30:41;;;;;;;;;;;;;;;;;;4972689;28;20439;-66
2024/01/28 00:33:08;;;;;;;;;;;;;;;;;;4971042;28;21708;-67
2024/01/28 00:35:34;;;;;;;;;;;;;;;;;;4973793;28;19913;-65
2024/01/28 00:38:02;;;;;;;;;;;;;;;;;;4969396;28;20348;-67
2024/01/28 00:40:32;;;;;;;;;;;;;;;;;;4986432;28;21603;-66
2024/01/28 00:43:00;;;;;;;;;;;;;;;;;;4976269;28;19921;-66
2024/01/28 00:45:25;;;;;;;;;;;;;;;;;;4983016;28;20365;-67
2024/01/28 00:47:53;;;;;;;;;;;;;;;;;;4974668;28;19920;-67
2024/01/28 00:57:03;;;;;;;;;;;;;;;;;;4997765;28;19924;-66
2024/01/28 00:59:34;;;;;;;;;;;;;;;;;;4998123;28;19928;-67
2024/01/28 01:05:16;;;;;;;;;;;;;;;;;;4997588;28;20048;-66
2024/01/28 01:07:41;;;;;;;;;;;;;;;;;;4986850;28;19918;-66
2024/01/28 01:10:08;;;;;;;;;;;;;;;;;;4974112;28;20349;-68
2024/01/28 01:15:52;;;;;;;;;;;;;;;;;;4997999;28;19929;-66
2024/01/28 01:18:23;;;;;;;;;;;;;;;;;;4973903;28;20015;-67
2024/01/28 01:20:49;;;;;;;;;;;;;;;;;;4988484;28;19921;-66
2024/01/28 01:23:17;;;;;;;;;;;;;;;;;;4983826;28;19930;-67
2024/01/28 01:25:45;;;;;;;;;;;;;;;;;;4985284;28;20033;-67
2024/01/28 01:28:10;;;;;;;;;;;;;;;;;;4986874;28;19920;-66
2024/01/28 01:33:52;;;;;;;;;;;;;;;;;;5005373;28;20292;-67
2024/01/28 01:36:23;;;;;;;;;;;;;;;;;;4986921;28;20301;-67
2024/01/28 01:38:51;;;;;;;;;;;;;;;;;;4969094;28;20657;-67
2024/01/28 01:41:16;;;;;;;;;;;;;;;;;;4964585;28;19917;-66
2024/01/28 01:43:41;;;;;;;;;;;;;;;;;;4970637;28;19917;-66
2024/01/28 01:46:12;;;;;;;;;;;;;;;;;;5005375;28;19921;-67
2024/01/28 01:48:40;;;;;;;;;;;;;;;;;;4981256;28;19917;-67
2024/01/28 01:51:07;;;;;;;;;;;;;;;;;;4974367;28;19921;-67
2024/01/28 01:53:32;;;;;;;;;;;;;;;;;;5004342;28;19918;-67
2024/01/28 01:56:00;;;;;;;;;;;;;;;;;;4988335;28;19933;-67
2024/01/28 01:58:26;;;;;;;;;;;;;;;;;;5002948;28;19913;-67
2024/01/28 02:00:53;;;;;;;;;;;;;;;;;;4984407;28;19941;-67
2024/01/28 02:03:21;;;;;;;;;;;;;;;;;;5001807;28;20038;-68
2024/01/28 02:05:46;;;;;;;;;;;;;;;;;;4986358;28;19922;-66
2024/01/28 02:08:14;;;;;;;;;;;;;;;;;;4981623;28;19953;-66
2024/01/28 02:10:40;;;;;;;;;;;;;;;;;;4988414;28;20008;-68
2024/01/28 02:13:05;;;;;;;;;;;;;;;;;;4971568;28;20382;-68
2024/01/28 02:15:30;;;;;;;;;;;;;;;;;;4990798;28;19943;-69
2024/01/28 02:17:58;;;;;;;;;;;;;;;;;;4984805;28;19921;-66
2024/01/28 02:20:23;;;;;;;;;;;;;;;;;;4992073;28;19922;-68
2024/01/28 02:22:49;;;;;;;;;;;;;;;;;;4988988;28;19936;-66
2024/01/28 02:25:14;;;;;;;;;;;;;;;;;;4989985;28;19925;-67
2024/01/28 02:27:41;;;;;;;;;;;;;;;;;;4983219;28;19925;-67
2024/01/28 02:30:10;;;;;;;;;;;;;;;;;;4990039;28;19977;-67
2024/01/28 02:32:35;;;;;;;;;;;;;;;;;;4976680;28;19917;-67
2024/01/28 02:35:00;;;;;;;;;;;;;;;;;;4990778;28;20008;-66
2024/01/28 02:37:26;;;;;;;;;;;;;;;;;;4960640;28;19944;-67
2024/01/28 02:39:51;;;;;;;;;;;;;;;;;;4959058;28;19921;-68
2024/01/28 02:42:19;;;;;;;;;;;;;;;;;;4966013;28;20495;-67
2024/01/28 02:44:44;;;;;;;;;;;;;;;;;;4972339;28;19929;-68
2024/01/28 02:47:10;;;;;;;;;;;;;;;;;;4983438;28;19917;-68
2024/01/28 02:49:35;;;;;;;;;;;;;;;;;;4987845;28;20448;-68
2024/01/28 02:52:05;;;;;;;;;;;;;;;;;;4988503;28;20377;-67
2024/01/28 02:54:33;;;;;;;;;;;;;;;;;;4988774;28;19964;-66
2024/01/28 02:56:58;;;;;;;;;;;;;;;;;;4953531;28;20191;-67
2024/01/28 02:59:24;;;;;;;;;;;;;;;;;;4967085;28;19921;-69
2024/01/28 03:01:49;;;;;;;;;;;;;;;;;;4969626;28;19921;-67
2024/01/28 03:04:17;;;;;;;;;;;;;;;;;;4988773;28;19925;-67
2024/01/28 03:06:45;;;;;;;;;;;;;;;;;;4969921;28;19924;-67
2024/01/28 03:09:10;;;;;;;;;;;;;;;;;;4985625;28;19918;-68
2024/01/28 03:11:39;;;;;;;;;;;;;;;;;;4967373;28;19978;-70
2024/01/28 03:14:04;;;;;;;;;;;;;;;;;;4973008;28;19940;-69
2024/01/28 03:16:30;;;;;;;;;;;;;;;;;;4986233;28;20020;-67
2024/01/28 03:18:55;;;;;;;;;;;;;;;;;;4966822;28;19925;-69
2024/01/28 03:21:21;;;;;;;;;;;;;;;;;;4970043;28;20352;-67
2024/01/28 03:23:46;;;;;;;;;;;;;;;;;;4957135;28;20011;-67
2024/01/28 03:26:11;;;;;;;;;;;;;;;;;;4964346;28;20016;-65
2024/01/28 03:28:36;;;;;;;;;;;;;;;;;;4989154;28;19917;-67
2024/01/28 03:31:04;;;;;;;;;;;;;;;;;;4985846;28;19929;-66
2024/01/28 03:33:30;;;;;;;;;;;;;;;;;;4986101;28;19917;-66
2024/01/28 03:35:56;;;;;;;;;;;;;;;;;;4967190;28;19928;-67
2024/01/28 03:38:23;;;;;;;;;;;;;;;;;;4971915;28;19928;-66
2024/01/28 03:40:49;;;;;;;;;;;;;;;;;;4985625;28;19951;-66
2024/01/28 03:43:14;;;;;;;;;;;;;;;;;;4952876;28;19921;-66
2024/01/28 03:45:39;;;;;;;;;;;;;;;;;;4955062;28;20020;-67
2024/01/28 03:48:10;;;;;;;;;;;;;;;;;;4986150;28;20049;-66
2024/01/28 03:50:36;;;;;;;;;;;;;;;;;;4954377;28;19953;-67
2024/01/28 03:53:06;;;;;;;;;;;;;;;;;;4972788;28;21581;-66
2024/01/28 03:55:32;;;;;;;;;;;;;;;;;;4969366;28;19960;-66
2024/01/28 03:57:57;;;;;;;;;;;;;;;;;;4963346;28;19972;-66
2024/01/28 04:00:28;;;;;;;;;;;;;;;;;;4977158;28;21612;-65
2024/01/28 04:02:56;;;;;;;;;;;;;;;;;;4961311;28;19953;-66
2024/01/28 04:05:22;;;;;;;;;;;;;;;;;;4952630;28;19925;-66
2024/01/28 04:07:47;;;;;;;;;;;;;;;;;;4972898;28;19933;-67
2024/01/28 04:10:15;;;;;;;;;;;;;;;;;;4982670;28;20408;-67
2024/01/28 04:12:46;;;;;;;;;;;;;;;;;;4981154;28;21592;-66
2024/01/28 04:15:14;;;;;;;;;;;;;;;;;;4985027;28;19943;-66
2024/01/28 04:17:44;;;;;;;;;;;;;;;;;;4986239;28;20431;-67
2024/01/28 04:20:12;;;;;;;;;;;;;;;;;;4965307;28;20011;-66
2024/01/28 04:22:38;;;;;;;;;;;;;;;;;;5000591;28;20273;-67
2024/01/28 04:25:06;;;;;;;;;;;;;;;;;;4984767;28;19958;-66
2024/01/28 04:27:31;;;;;;;;;;;;;;;;;;4979279;28;19917;-66
2024/01/28 04:30:02;;;;;;;;;;;;;;;;;;4988855;28;20333;-67
2024/01/28 04:32:27;;;;;;;;;;;;;;;;;;4979568;28;19995;-67
2024/01/28 04:34:52;;;;;;;;;;;;;;;;;;4989553;28;20129;-66
2024/01/28 04:37:18;;;;;;;;;;;;;;;;;;4984982;28;19990;-66
2024/01/28 04:39:44;;;;;;;;;;;;;;;;;;4974692;28;19999;-67
2024/01/28 04:42:10;;;;;;;;;;;;;;;;;;4968525;28;19991;-66
2024/01/28 04:44:35;;;;;;;;;;;;;;;;;;4999295;28;20286;-67
2024/01/28 04:47:01;;;;;;;;;;;;;;;;;;4991684;28;19972;-67
2024/01/28 04:49:26;;;;;;;;;;;;;;;;;;4990356;28;20286;-67
2024/01/28 04:51:51;;;;;;;;;;;;;;;;;;5001241;28;20031;-67
2024/01/28 04:54:19;;;;;;;;;;;;;;;;;;4960364;28;19921;-66
2024/01/28 04:56:45;;;;;;;;;;;;;;;;;;4984783;28;19994;-67
2024/01/28 04:59:13;;;;;;;;;;;;;;;;;;5000552;28;20452;-66
2024/01/28 05:01:38;;;;;;;;;;;;;;;;;;4972587;28;19913;-66
2024/01/28 05:04:04;;;;;;;;;;;;;;;;;;4974501;28;19920;-67
2024/01/28 05:06:34;;;;;;;;;;;;;;;;;;4970412;28;19921;-67
2024/01/28 05:09:00;;;;;;;;;;;;;;;;;;5006437;28;19921;-68
2024/01/28 05:11:25;;;;;;;;;;;;;;;;;;5002541;28;20301;-68
2024/01/28 05:13:51;;;;;;;;;;;;;;;;;;4992810;28;20445;-68
2024/01/28 05:16:17;;;;;;;;;;;;;;;;;;4976559;28;19983;-67
2024/01/28 05:18:42;;;;;;;;;;;;;;;;;;4972519;28;20016;-67
2024/01/28 05:21:08;;;;;;;;;;;;;;;;;;4976059;28;19917;-67
2024/01/28 05:23:33;;;;;;;;;;;;;;;;;;4987020;28;19944;-67
2024/01/28 05:26:00;;;;;;;;;;;;;;;;;;4989342;28;19929;-68
2024/01/28 05:28:25;;;;;;;;;;;;;;;;;;5000365;28;20102;-68
2024/01/28 05:30:51;;;;;;;;;;;;;;;;;;5003180;28;20020;-68
2024/01/28 05:33:17;;;;;;;;;;;;;;;;;;4974583;28;19917;-68
2024/01/28 05:35:42;;;;;;;;;;;;;;;;;;5005393;28;19924;-66
2024/01/28 05:38:08;;;;;;;;;;;;;;;;;;4987024;28;20020;-68
2024/01/28 05:40:33;;;;;;;;;;;;;;;;;;5003827;28;19921;-68
2024/01/28 05:42:59;;;;;;;;;;;;;;;;;;5001287;28;19917;-68
2024/01/28 05:45:24;;;;;;;;;;;;;;;;;;5002952;28;20640;-68
2024/01/28 05:47:50;;;;;;;;;;;;;;;;;;4987938;28;19925;-67
2024/01/28 05:50:15;;;;;;;;;;;;;;;;;;5001420;28;19922;-67
2024/01/28 05:52:43;;;;;;;;;;;;;;;;;;4991604;28;19929;-68
2024/01/28 05:55:09;;;;;;;;;;;;;;;;;;4974551;28;20351;-69
2024/01/28 05:57:35;;;;;;;;;;;;;;;;;;4978477;28;19925;-66
2024/01/28 06:00:00;;;;;;;;;;;;;;;;;;4981794;28;20044;-67
2024/01/28 06:02:26;;;;;;;;;;;;;;;;;;5001002;28;20156;-68
2024/01/28 06:04:53;;;;;;;;;;;;;;;;;;4989204;28;19967;-68
2024/01/28 06:07:19;;;;;;;;;;;;;;;;;;5005029;28;19948;-68
2024/01/28 06:09:47;;;;;;;;;;;;;;;;;;5000847;28;20377;-68
2024/01/28 06:12:14;;;;;;;;;;;;;;;;;;4982672;28;20215;-70
2024/01/28 06:17:29;;;;;;;;;;;;;;;;;;5005506;28;19990;-69
2024/01/28 06:19:55;;;;;;;;;;;;;;;;;;4975124;28;21076;-68
2024/01/28 06:22:20;;;;;;;;;;;;;;;;;;5005588;28;19918;-68
2024/01/28 06:24:45;;;;;;;;;;;;;;;;;;4985886;28;19929;-70
2024/01/28 06:27:11;;;;;;;;;;;;;;;;;;4974712;28;20360;-69
2024/01/28 06:29:38;;;;;;;;;;;;;;;;;;4984428;28;21035;-68
2024/01/28 06:32:04;;;;;;;;;;;;;;;;;;4997015;28;20063;-69
2024/01/28 06:34:34;;;;;;;;;;;;;;;;;;4972999;28;20426;-69
2024/01/28 06:37:03;;;;;;;;;;;;;;;;;;4974039;28;19923;-70
2024/01/28 06:39:28;;;;;;;;;;;;;;;;;;4974856;28;19921;-68
2024/01/28 06:41:54;;;;;;;;;;;;;;;;;;4975424;28;20049;-69
2024/01/28 06:44:19;;;;;;;;;;;;;;;;;;4985161;28;20020;-69
2024/01/28 06:46:49;;;;;;;;;;;;;;;;;;4967685;28;19921;-69
2024/01/28 06:49:15;;;;;;;;;;;;;;;;;;4998723;28;20463;-70
2024/01/28 06:51:43;;;;;;;;;;;;;;;;;;4971845;28;19921;-69
2024/01/28 06:54:08;;;;;;;;;;;;;;;;;;4999892;28;20036;-71
2024/01/28 06:56:33;;;;;;;;;;;;;;;;;;4989610;28;20035;-70
2024/01/28 06:58:58;;;;;;;;;;;;;;;;;;5007128;28;19929;-70
2024/01/28 07:01:26;;;;;;;;;;;;;;;;;;5000346;28;19922;-70
2024/01/28 07:03:52;;;;;;;;;;;;;;;;;;5002169;28;20423;-69
2024/01/28 07:06:20;;;;;;;;;;;;;;;;;;4999530;28;20002;-69
2024/01/28 07:08:45;;;;;;;;;;;;;;;;;;5001910;28;20436;-70
2024/01/28 07:11:13;;;;;;;;;;;;;;;;;;4980798;28;20598;-70
2024/01/28 07:13:40;;;;;;;;;;;;;;;;;;5003099;28;20045;-69
2024/01/28 07:16:09;;;;;;;;;;;;;;;;;;4970817;28;19991;-68
2024/01/28 07:18:35;;;;;;;;;;;;;;;;;;4987348;28;20304;-68
2024/01/28 07:21:02;;;;;;;;;;;;;;;;;;4998638;28;20385;-69
2024/01/28 07:23:30;;;;;;;;;;;;;;;;;;4982172;28;19928;-69
2024/01/28 07:25:57;;;;;;;;;;;;;;;;;;4971979;28;19929;-68
2024/01/28 07:28:25;;;;;;;;;;;;;;;;;;4964799;28;19983;-69
2024/01/28 07:30:50;;;;;;;;;;;;;;;;;;4987466;28;20052;-68
2024/01/28 07:33:17;;;;;;;;;;;;;;;;;;4995670;28;19917;-70
2024/01/28 07:35:42;;;;;;;;;;;;;;;;;;5003450;28;19975;-69
2024/01/28 07:38:08;;;;;;;;;;;;;;;;;;4978696;28;20404;-69
2024/01/28 07:40:34;;;;;;;;;;;;;;;;;;4965283;28;19921;-69
2024/01/28 07:43:02;;;;;;;;;;;;;;;;;;4982674;28;19920;-69
2024/01/28 07:45:27;;;;;;;;;;;;;;;;;;4988624;28;19926;-68
2024/01/28 07:47:55;;;;;;;;;;;;;;;;;;4971998;28;19920;-68
2024/01/28 07:50:20;;;;;;;;;;;;;;;;;;5001984;28;20016;-69
2024/01/28 07:52:48;;;;;;;;;;;;;;;;;;4988618;28;20361;-69
2024/01/28 07:55:14;;;;;;;;;;;;;;;;;;4976185;28;19964;-68
2024/01/28 07:57:39;;;;;;;;;;;;;;;;;;5002389;28;20071;-70
2024/01/28 08:00:05;;;;;;;;;;;;;;;;;;4990681;28;20292;-66
2024/01/28 08:02:30;;;;;;;;;;;;;;;;;;4998353;28;20069;-69
2024/01/28 08:04:55;;;;;;;;;;;;;;;;;;4994713;28;19925;-68
2024/01/28 08:07:25;;;;;;;;;;;;;;;;;;4973451;28;19962;-69
2024/01/28 08:09:50;;;;;;;;;;;;;;;;;;4971643;28;19925;-69
2024/01/28 08:12:16;;;;;;;;;;;;;;;;;;4982640;28;19972;-68
2024/01/28 08:14:46;;;;;;;;;;;;;;;;;;4983559;28;19928;-70
2024/01/28 08:17:14;;;;;;;;;;;;;;;;;;4972964;28;19967;-69
2024/01/28 08:19:40;;;;;;;;;;;;;;;;;;4971653;28;19917;-69
2024/01/28 08:22:07;;;;;;;;;;;;;;;;;;4990510;28;19928;-70
2024/01/28 08:24:35;;;;;;;;;;;;;;;;;;4989548;28;19925;-70
2024/01/28 08:27:04;;;;;;;;;;;;;;;;;;4986047;28;20292;-70
2024/01/28 08:29:32;;;;;;;;;;;;;;;;;;4970314;28;19941;-69
2024/01/28 08:31:58;;;;;;;;;;;;;;;;;;4984799;28;20365;-70
2024/01/28 08:34:23;;;;;;;;;;;;;;;;;;5004098;28;20539;-70
2024/01/28 08:36:48;;;;;;;;;;;;;;;;;;5008062;28;19973;-70
2024/01/28 08:39:14;;;;;;;;;;;;;;;;;;4988761;28;19921;-70
2024/01/28 08:41:39;;;;;;;;;;;;;;;;;;5008170;28;19921;-71
2024/01/28 08:44:05;;;;;;;;;;;;;;;;;;4975452;28;20391;-69
2024/01/28 08:46:36;;;;;;;;;;;;;;;;;;4995478;28;19967;-70
2024/01/28 08:49:02;;;;;;;;;;;;;;;;;;5010433;28;19932;-71
2024/01/28 08:51:27;;;;;;;;;;;;;;;;;;4992218;28;19917;-70
2024/01/28 08:53:53;;;;;;;;;;;;;;;;;;5004406;28;19917;-70
2024/01/28 08:56:21;;;;;;;;;;;;;;;;;;4977107;28;20407;-70
2024/01/28 08:58:46;;;;;;;;;;;;;;;;;;5009809;28;19991;-70
2024/01/28 09:01:13;;;;;;;;;;;;;;;;;;4995234;28;20377;-70
2024/01/28 09:03:38;;;;;;;;;;;;;;;;;;4987186;28;19921;-71
2024/01/28 09:06:06;;;;;;;;;;;;;;;;;;4989817;28;20292;-68
2024/01/28 09:08:31;;;;;;;;;;;;;;;;;;4985692;28;20007;-71
2024/01/28 09:10:57;;;;;;;;;;;;;;;;;;4997168;28;19933;-69
2024/01/28 09:13:22;;;;;;;;;;;;;;;;;;4974377;28;19929;-70
2024/01/28 09:15:47;;;;;;;;;;;;;;;;;;4970829;28;20582;-69
2024/01/28 09:18:13;;;;;;;;;;;;;;;;;;4992675;28;20678;-69
2024/01/28 09:20:38;;;;;;;;;;;;;;;;;;4968265;28;20486;-71
2024/01/28 09:23:04;;;;;;;;;;;;;;;;;;4991240;28;19928;-70
2024/01/28 09:25:33;;;;;;;;;;;;;;;;;;4972181;28;19969;-70
2024/01/28 09:34:31;;;;;;;;;;;;;;;;;;4993443;28;19924;-70
2024/01/28 09:36:57;;;;;;;;;;;;;;;;;;4993457;28;19922;-69
2024/01/28 09:39:23;;;;;;;;;;;;;;;;;;4972417;28;19971;-69
2024/01/28 09:41:48;;;;;;;;;;;;;;;;;;4967111;28;19924;-70
2024/01/28 09:44:18;;;;;;;;;;;;;;;;;;4972348;28;19964;-69
2024/01/28 09:46:43;;;;;;;;;;;;;;;;;;4975958;28;20368;-68
2024/01/28 09:49:11;;;;;;;;;;;;;;;;;;4971613;28;19922;-70
2024/01/28 09:51:36;;;;;;;;;;;;;;;;;;4975923;28;20293;-69
2024/01/28 09:54:02;;;;;;;;;;;;;;;;;;4960254;28;19936;-69
2024/01/28 09:56:27;;;;;;;;;;;;;;;;;;4973212;28;20312;-69
2024/01/28 09:58:53;;;;;;;;;;;;;;;;;;4958404;28;19928;-67
2024/01/28 10:01:18;;;;;;;;;;;;;;;;;;4958014;28;19987;-70
2024/01/28 10:03:43;;;;;;;;;;;;;;;;;;4975777;28;19922;-69
2024/01/28 10:06:09;;;;;;;;;;;;;;;;;;4958076;28;20710;-69
2024/01/28 10:08:34;;;;;;;;;;;;;;;;;;4971645;28;19925;-70
2024/01/28 10:11:02;;;;;;;;;;;;;;;;;;4981909;28;19952;-70
2024/01/28 10:13:30;;;;;;;;;;;;;;;;;;4987649;28;20003;-68
2024/01/28 10:15:56;;;;;;;;;;;;;;;;;;5003825;28;20039;-69
2024/01/28 10:18:21;;;;;;;;;;;;;;;;;;4979004;28;19922;-70
2024/01/28 10:20:47;;;;;;;;;;;;;;;;;;4987260;28;20089;-70
2024/01/28 10:23:14;;;;;;;;;;;;;;;;;;4952673;28;19918;-69
2024/01/28 10:25:40;;;;;;;;;;;;;;;;;;4964687;28;19930;-69
2024/01/28 10:28:08;;;;;;;;;;;;;;;;;;4980827;28;20253;-69
2024/01/28 10:30:33;;;;;;;;;;;;;;;;;;4975335;28;19917;-68
2024/01/28 10:32:59;;;;;;;;;;;;;;;;;;4993364;28;19980;-69
2024/01/28 10:35:25;;;;;;;;;;;;;;;;;;4975713;28;20377;-69
2024/01/28 10:37:50;;;;;;;;;;;;;;;;;;5002642;28;19921;-68
2024/01/28 10:40:16;;;;;;;;;;;;;;;;;;5001914;28;19925;-67
2024/01/28 10:42:41;;;;;;;;;;;;;;;;;;4986001;28;19920;-67
2024/01/28 10:45:06;;;;;;;;;;;;;;;;;;4986699;28;20431;-67
2024/01/28 10:47:33;;;;;;;;;;;;;;;;;;4987897;28;19929;-68
2024/01/28 10:49:59;;;;;;;;;;;;;;;;;;5004589;28;19924;-67
2024/01/28 10:52:27;;;;;;;;;;;;;;;;;;4982520;28;19921;-68
2024/01/28 10:54:55;;;;;;;;;;;;;;;;;;5002243;28;20348;-66
2024/01/28 10:57:22;;;;;;;;;;;;;;;;;;4976570;28;21534;-66
2024/01/28 10:59:53;;;;;;;;;;;;;;;;;;5007862;28;19929;-67
2024/01/28 11:02:20;;;;;;;;;;;;;;;;;;5006472;28;20293;-66
2024/01/28 11:04:48;;;;;;;;;;;;;;;;;;4986102;28;20231;-66
2024/01/28 11:10:33;;;;;;;;;;;;;;;;;;4993772;28;20407;-65
2024/01/28 11:13:01;;;;;;;;;;;;;;;;;;4952911;28;19943;-66
2024/01/28 11:15:26;;;;;;;;;;;;;;;;;;4957308;28;20365;-65
2024/01/28 11:17:51;;;;;;;;;;;;;;;;;;4988310;28;20284;-65
2024/01/28 11:20:17;;;;;;;;;;;;;;;;;;4968779;28;19949;-65
2024/01/28 11:22:42;;;;;;;;;;;;;;;;;;4968778;28;20778;-65
2024/01/28 11:25:07;;;;;;;;;;;;;;;;;;4972759;28;20659;-65
2024/01/28 11:27:35;;;;;;;;;;;;;;;;;;4975032;28;20703;-66
2024/01/28 11:30:01;;;;;;;;;;;;;;;;;;4966682;28;20533;-65
2024/01/28 11:32:28;;;;;;;;;;;;;;;;;;4954522;28;20020;-66
2024/01/28 11:34:53;;;;;;;;;;;;;;;;;;4950802;28;19913;-66
2024/01/28 11:37:22;;;;;;;;;;;;;;;;;;4967989;28;20504;-65
2024/01/28 11:39:49;;;;;;;;;;;;;;;;;;4984654;28;19922;-65
2024/01/28 11:42:14;;;;;;;;;;;;;;;;;;4967997;28;20411;-65
2024/01/28 11:44:40;;;;;;;;;;;;;;;;;;4952826;28;19926;-67
2024/01/28 11:47:06;;;;;;;;;;;;;;;;;;4973966;28;20285;-66
2024/01/28 11:49:32;;;;;;;;;;;;;;;;;;4965389;28;20008;-66
2024/01/28 11:51:59;;;;;;;;;;;;;;;;;;4953851;28;19922;-66
2024/01/28 11:54:27;;;;;;;;;;;;;;;;;;4987385;28;19913;-66
2024/01/28 11:56:55;;;;;;;;;;;;;;;;;;4956347;28;19952;-66
2024/01/28 11:59:20;;;;;;;;;;;;;;;;;;4966101;28;19929;-65
2024/01/28 12:01:46;;;;;;;;;;;;;;;;;;4962546;28;19942;-64
2024/01/28 12:04:16;;;;;;;;;;;;;;;;;;4964738;28;19991;-66
2024/01/28 12:06:42;;;;;;;;;;;;;;;;;;4966365;28;19945;-65
2024/01/28 12:09:07;;;;;;;;;;;;;;;;;;4965150;28;19976;-66
2024/01/28 12:11:35;;;;;;;;;;;;;;;;;;4986770;28;19921;-66
2024/01/28 12:14:01;;;;;;;;;;;;;;;;;;4984701;28;19928;-66
2024/01/28 12:16:26;;;;;;;;;;;;;;;;;;4966225;28;19991;-66
2024/01/28 12:18:54;;;;;;;;;;;;;;;;;;4999867;28;19921;-65
2024/01/28 12:21:19;;;;;;;;;;;;;;;;;;4977179;28;19963;-65
2024/01/28 12:23:47;;;;;;;;;;;;;;;;;;4986862;28;19921;-65
2024/01/28 12:26:15;;;;;;;;;;;;;;;;;;4986384;28;19956;-65
2024/01/28 12:28:40;;;;;;;;;;;;;;;;;;4979911;28;19921;-66
2024/01/28 12:31:05;;;;;;;;;;;;;;;;;;4987077;28;19929;-67
2024/01/28 12:33:33;;;;;;;;;;;;;;;;;;4966731;28;19921;-67
2024/01/28 12:35:58;;;;;;;;;;;;;;;;;;4986528;28;20502;-65
2024/01/28 12:38:24;;;;;;;;;;;;;;;;;;4981369;28;19929;-66
2024/01/28 12:40:49;;;;;;;;;;;;;;;;;;4996496;28;22008;-65
2024/01/28 12:43:14;;;;;;;;;;;;;;;;;;4981274;28;20388;-66
2024/01/28 12:45:42;;;;;;;;;;;;;;;;;;4978946;28;19931;-65
2024/01/28 12:48:10;;;;;;;;;;;;;;;;;;4990882;28;20008;-66
2024/01/28 12:50:36;;;;;;;;;;;;;;;;;;4982863;28;19931;-66
2024/01/28 12:53:01;;;;;;;;;;;;;;;;;;4982332;28;20574;-65
2024/01/28 12:55:29;;;;;;;;;;;;;;;;;;4979522;28;20202;-65
2024/01/28 12:57:54;;;;;;;;;;;;;;;;;;4999413;28;20241;-66
2024/01/28 13:00:20;;;;;;;;;;;;;;;;;;4984950;28;19921;-67
2024/01/28 13:02:45;;;;;;;;;;;;;;;;;;4960484;28;19929;-66
2024/01/28 13:05:15;;;;;;;;;;;;;;;;;;4982637;28;19929;-66
2024/01/28 13:07:43;;;;;;;;;;;;;;;;;;4978816;28;20012;-65
2024/01/28 13:10:09;;;;;;;;;;;;;;;;;;4968935;28;19921;-66
2024/01/28 13:12:38;;;;;;;;;;;;;;;;;;4985086;28;19921;-66
2024/01/28 13:15:05;;;;;;;;;;;;;;;;;;5001920;28;19986;-66
2024/01/28 13:17:49;;;;;;;;;;;;;;;;;;5001169;28;20402;-66
2024/01/28 13:20:15;;;;;;;;;;;;;;;;;;4979438;28;19917;-70
2024/01/28 13:22:52;;;;;;;;;;;;;;;;;;4982210;28;19932;-66
2024/01/28 13:25:21;;;;;;;;;;;;;;;;;;4990501;28;19952;-66
2024/01/28 13:27:46;;;;;;;;;;;;;;;;;;4987937;28;20628;-66
2024/01/28 13:30:12;;;;;;;;;;;;;;;;;;4993808;28;19952;-65
2024/01/28 13:32:37;;;;;;;;;;;;;;;;;;4998243;28;21454;-66
2024/01/28 13:35:08;;;;;;;;;;;;;;;;;;4975757;28;20667;-66
2024/01/28 13:37:33;;;;;;;;;;;;;;;;;;4973320;28;19921;-67
2024/01/28 13:39:59;;;;;;;;;;;;;;;;;;5000341;28;20400;-66
2024/01/28 13:42:26;;;;;;;;;;;;;;;;;;4976046;28;19986;-67
2024/01/28 13:44:52;;;;;;;;;;;;;;;;;;4975101;28;20372;-66
2024/01/28 13:47:17;;;;;;;;;;;;;;;;;;4982378;28;19921;-66
2024/01/28 13:49:47;;;;;;;;;;;;;;;;;;4997812;28;19924;-66
2024/01/28 13:52:16;;;;;;;;;;;;;;;;;;5003701;28;19921;-66
2024/01/28 13:54:41;;;;;;;;;;;;;;;;;;4996758;28;19921;-66
2024/01/28 13:57:06;;;;;;;;;;;;;;;;;;5001703;28;19921;-66
2024/01/28 13:59:34;;;;;;;;;;;;;;;;;;4980794;28;20313;-65
2024/01/28 14:02:01;;;;;;;;;;;;;;;;;;4980967;28;19921;-66
2024/01/28 14:04:32;;;;;;;;;;;;;;;;;;4997038;28;19933;-65
2024/01/28 14:07:00;;;;;;;;;;;;;;;;;;4969294;28;20376;-66
2024/01/28 14:09:27;;;;;;;;;;;;;;;;;;4999204;28;19928;-66
2024/01/28 14:11:55;;;;;;;;;;;;;;;;;;4982674;28;19976;-66
2024/01/28 14:14:23;;;;;;;;;;;;;;;;;;5002604;28;19921;-66
2024/01/28 14:16:48;;;;;;;;;;;;;;;;;;4988987;28;19968;-65
2024/01/28 14:19:13;;;;;;;;;;;;;;;;;;4986137;28;20004;-65
2024/01/28 14:21:41;;;;;;;;;;;;;;;;;;4973723;28;20558;-65
2024/01/28 14:24:09;;;;;;;;;;;;;;;;;;4989096;28;19921;-66
2024/01/28 14:26:34;;;;;;;;;;;;;;;;;;4991562;28;20404;-67
2024/01/28 14:29:02;;;;;;;;;;;;;;;;;;4989015;28;19921;-66
2024/01/28 14:31:27;;;;;;;;;;;;;;;;;;4991153;28;20399;-64
2024/01/28 14:33:53;;;;;;;;;;;;;;;;;;4969908;28;20011;-66
2024/01/28 14:36:18;;;;;;;;;;;;;;;;;;4974285;28;20504;-66
2024/01/28 14:38:49;;;;;;;;;;;;;;;;;;4992558;28;19917;-66
2024/01/28 14:41:15;;;;;;;;;;;;;;;;;;4996439;28;19925;-65
2024/01/28 14:43:40;;;;;;;;;;;;;;;;;;5002374;28;19960;-67
2024/01/28 14:46:06;;;;;;;;;;;;;;;;;;4985070;28;20020;-65
2024/01/28 14:48:31;;;;;;;;;;;;;;;;;;4987257;28;19940;-66
2024/01/28 14:50:56;;;;;;;;;;;;;;;;;;4972610;28;19917;-64
2024/01/28 14:53:24;;;;;;;;;;;;;;;;;;4972995;28;20372;-66
2024/01/28 14:55:52;;;;;;;;;;;;;;;;;;4983752;28;19929;-65
2024/01/28 14:58:17;;;;;;;;;;;;;;;;;;4991125;28;20269;-65
2024/01/28 15:00:45;;;;;;;;;;;;;;;;;;5005626;28;19931;-65
2024/01/28 15:03:14;;;;;;;;;;;;;;;;;;4989993;28;19924;-67
2024/01/28 15:05:42;;;;;;;;;;;;;;;;;;4998222;28;19926;-66
2024/01/28 15:08:07;;;;;;;;;;;;;;;;;;4986153;28;19917;-66
2024/01/28 15:10:33;;;;;;;;;;;;;;;;;;4987307;28;19921;-66
2024/01/28 15:12:58;;;;;;;;;;;;;;;;;;4989795;28;20206;-65
2024/01/28 15:15:26;;;;;;;;;;;;;;;;;;5002659;28;20384;-66
2024/01/28 15:17:51;;;;;;;;;;;;;;;;;;4981545;28;19920;-66
2024/01/28 15:20:20;;;;;;;;;;;;;;;;;;4973616;28;19979;-66
2024/01/28 15:22:49;;;;;;;;;;;;;;;;;;4987123;28;19921;-66
2024/01/28 15:25:16;;;;;;;;;;;;;;;;;;4986482;28;19932;-66
2024/01/28 15:31:00;;;;;;;;;;;;;;;;;;5002296;28;19928;-66
2024/01/28 15:33:26;;;;;;;;;;;;;;;;;;4990152;28;19917;-65
2024/01/28 15:35:54;;;;;;;;;;;;;;;;;;4973014;28;20386;-65
2024/01/28 15:38:19;;;;;;;;;;;;;;;;;;4973451;28;19921;-66
2024/01/28 15:40:44;;;;;;;;;;;;;;;;;;4971725;28;19928;-66
2024/01/28 15:43:10;;;;;;;;;;;;;;;;;;4973788;28;19921;-66
2024/01/28 15:45:35;;;;;;;;;;;;;;;;;;4969091;28;19932;-66
2024/01/28 15:48:01;;;;;;;;;;;;;;;;;;4983782;28;20287;-65
2024/01/28 15:50:26;;;;;;;;;;;;;;;;;;4997505;28;19921;-64
2024/01/28 15:52:51;;;;;;;;;;;;;;;;;;4973479;28;19927;-66
2024/01/28 15:55:17;;;;;;;;;;;;;;;;;;4985007;28;19975;-65
2024/01/28 15:57:44;;;;;;;;;;;;;;;;;;4984506;28;20396;-66
2024/01/28 16:00:11;;;;;;;;;;;;;;;;;;4983889;28;19945;-67
2024/01/28 16:02:39;;;;;;;;;;;;;;;;;;5000414;28;19964;-66
2024/01/28 16:05:05;;;;;;;;;;;;;;;;;;4973609;28;20048;-66
2024/01/28 16:07:30;;;;;;;;;;;;;;;;;;4990237;28;21466;-66
2024/01/28 16:09:56;;;;;;;;;;;;;;;;;;4987317;28;19924;-66
2024/01/28 16:12:24;;;;;;;;;;;;;;;;;;4973887;28;19921;-67
2024/01/28 16:14:49;;;;;;;;;;;;;;;;;;5002390;28;19917;-66
2024/01/28 16:17:18;;;;;;;;;;;;;;;;;;4988572;28;19952;-66
2024/01/28 16:23:02;;;;;;;;;;;;;;;;;;4999412;28;20117;-65
2024/01/28 16:28:47;;;;;;;;;;;;;;;;;;5000292;28;19983;-65
2024/01/28 16:31:12;;;;;;;;;;;;;;;;;;4998368;28;19928;-66
2024/01/28 16:33:37;;;;;;;;;;;;;;;;;;4984781;28;19913;-66
2024/01/28 16:36:03;;;;;;;;;;;;;;;;;;4982586;28;20031;-67
2024/01/28 16:38:31;;;;;;;;;;;;;;;;;;4983708;28;20471;-67
2024/01/28 16:40:59;;;;;;;;;;;;;;;;;;4987887;28;19947;-66
2024/01/28 16:43:25;;;;;;;;;;;;;;;;;;4989440;28;19944;-68
2024/01/28 16:45:50;;;;;;;;;;;;;;;;;;4970708;28;20318;-67
2024/01/28 16:48:15;;;;;;;;;;;;;;;;;;4989427;28;19971;-68
2024/01/28 16:50:43;;;;;;;;;;;;;;;;;;4981643;28;19972;-66
2024/01/28 16:53:10;;;;;;;;;;;;;;;;;;4986236;28;19925;-67
2024/01/28 16:55:35;;;;;;;;;;;;;;;;;;5005399;28;19989;-66
2024/01/28 16:58:18;;;;;;;;;;;;;;;;;;4986683;28;20005;-66
2024/01/28 17:00:46;;;;;;;;;;;;;;;;;;4989583;28;20044;-66
2024/01/28 17:03:11;;;;;;;;;;;;;;;;;;5002305;28;19986;-67
2024/01/28 17:05:37;;;;;;;;;;;;;;;;;;4976210;28;20491;-66
2024/01/28 17:08:02;;;;;;;;;;;;;;;;;;5005200;28;19923;-66
2024/01/28 17:10:28;;;;;;;;;;;;;;;;;;5005507;28;19921;-66
2024/01/28 17:12:55;;;;;;;;;;;;;;;;;;4988854;28;19917;-66
2024/01/28 17:15:21;;;;;;;;;;;;;;;;;;4985154;28;20568;-67
2024/01/28 17:17:49;;;;;;;;;;;;;;;;;;5003227;28;19952;-65
2024/01/28 17:20:14;;;;;;;;;;;;;;;;;;5004108;28;19917;-67